createdAt,value
2022-11-04T00:00:09.119Z,10.70
2022-11-04T00:00:31.949Z,10.70
2022-11-04T00:00:54.759Z,10.70
2022-11-04T00:01:17.597Z,10.70
2022-11-04T00:01:40.811Z,10.80
2022-11-04T00:02:04.092Z,10.80
2022-11-04T00:02:27.660Z,10.80
2022-11-04T00:02:50.443Z,10.80
2022-11-04T00:03:13.311Z,10.80
2022-11-04T00:03:35.931Z,10.80
2022-11-04T00:03:58.656Z,10.80
2022-11-04T00:04:23.716Z,10.80
2022-11-04T00:04:46.510Z,10.90
2022-11-04T00:05:09.500Z,10.90
2022-11-04T00:05:32.666Z,10.90
2022-11-04T00:05:55.372Z,10.90
2022-11-04T00:06:18.131Z,10.90
2022-11-04T00:06:40.921Z,10.90
2022-11-04T00:07:23.784Z,10.90
2022-11-04T00:08:04.890Z,10.80
2022-11-04T00:08:27.681Z,10.90
2022-11-04T00:08:53.417Z,10.90
2022-11-04T00:09:17.521Z,10.90
2022-11-04T00:09:40.260Z,10.80
2022-11-04T00:10:03.002Z,10.80
2022-11-04T00:10:45.680Z,10.80
2022-11-04T00:11:28.330Z,10.80
2022-11-04T00:12:09.571Z,10.90
2022-11-04T00:12:32.291Z,10.80
2022-11-04T00:12:56.756Z,10.90
2022-11-04T00:13:19.524Z,10.90
2022-11-04T00:13:42.392Z,10.90
2022-11-04T00:14:05.599Z,10.90
2022-11-04T00:14:29.977Z,10.90
2022-11-04T00:14:52.926Z,10.90
2022-11-04T00:15:34.414Z,10.90
2022-11-04T00:16:18.999Z,10.90
2022-11-04T00:17:00.309Z,10.90
2022-11-04T00:17:23.600Z,10.90
2022-11-04T00:17:46.370Z,10.90
2022-11-04T00:18:09.055Z,10.90
2022-11-04T00:18:31.767Z,10.90
2022-11-04T00:18:54.498Z,11.00
2022-11-04T00:19:17.366Z,11.00
2022-11-04T00:19:58.497Z,11.00
2022-11-04T00:20:39.745Z,11.00
2022-11-04T00:21:21.263Z,11.00
2022-11-04T00:22:02.465Z,11.00
2022-11-04T00:22:43.451Z,11.00
2022-11-04T00:23:24.740Z,11.00
2022-11-04T00:24:05.971Z,11.00
2022-11-04T00:24:43.180Z,11.00
2022-11-04T00:25:24.865Z,10.90
2022-11-04T00:26:06.201Z,10.90
2022-11-04T00:26:47.466Z,11.00
2022-11-04T00:27:28.852Z,10.90
2022-11-04T00:28:10.090Z,11.00
2022-11-04T00:28:43.559Z,11.00
2022-11-04T00:29:06.251Z,11.00
2022-11-04T00:29:28.946Z,11.00
2022-11-04T00:29:51.695Z,11.00
2022-11-04T00:30:14.385Z,11.00
2022-11-04T00:30:37.101Z,11.00
2022-11-04T00:31:19.294Z,11.00
2022-11-04T00:32:00.635Z,11.00
2022-11-04T00:32:42.274Z,11.00
2022-11-04T00:33:23.381Z,11.00
2022-11-04T00:33:46.078Z,11.00
2022-11-04T00:34:08.976Z,11.00
2022-11-04T00:34:31.670Z,11.00
2022-11-04T00:34:54.283Z,11.00
2022-11-04T00:35:17.167Z,11.00
2022-11-04T00:35:39.883Z,11.00
2022-11-04T00:36:02.592Z,11.00
2022-11-04T00:36:25.505Z,11.00
2022-11-04T00:36:48.161Z,11.00
2022-11-04T00:37:11.880Z,11.00
2022-11-04T00:37:37.089Z,11.00
2022-11-04T00:37:59.846Z,11.00
2022-11-04T00:38:23.050Z,11.00
2022-11-04T00:38:45.810Z,11.00
2022-11-04T00:39:08.454Z,11.00
2022-11-04T00:39:32.314Z,11.00
2022-11-04T00:39:54.939Z,11.00
2022-11-04T00:40:17.725Z,11.00
2022-11-04T00:40:40.461Z,11.00
2022-11-04T00:41:03.160Z,11.00
2022-11-04T00:41:30.134Z,11.00
2022-11-04T00:41:53.131Z,11.10
2022-11-04T00:42:15.786Z,11.10
2022-11-04T00:42:38.533Z,11.00
2022-11-04T00:43:01.253Z,11.00
2022-11-04T00:43:23.965Z,11.00
2022-11-04T00:43:48.020Z,11.10
2022-11-04T00:44:10.634Z,11.00
2022-11-04T00:44:33.375Z,11.10
2022-11-04T00:44:56.075Z,11.10
2022-11-04T00:45:18.871Z,11.10
2022-11-04T00:45:41.764Z,11.10
2022-11-04T00:46:04.536Z,11.10
2022-11-04T00:46:27.395Z,11.10
2022-11-04T00:46:50.094Z,11.10
2022-11-04T00:47:12.735Z,11.10
2022-11-04T00:47:35.637Z,11.10
2022-11-04T00:47:58.301Z,11.10
2022-11-04T00:48:20.920Z,11.10
2022-11-04T00:48:43.565Z,11.00
2022-11-04T00:49:07.374Z,11.00
2022-11-04T00:49:30.120Z,11.10
2022-11-04T00:49:52.852Z,11.10
2022-11-04T00:50:15.510Z,11.10
2022-11-04T00:50:38.414Z,11.10
2022-11-04T00:51:01.168Z,11.10
2022-11-04T00:51:24.978Z,11.10
2022-11-04T00:51:47.656Z,11.10
2022-11-04T00:52:10.321Z,11.00
2022-11-04T00:52:33.786Z,11.10
2022-11-04T00:52:59.690Z,11.10
2022-11-04T00:53:22.371Z,11.10
2022-11-04T00:53:45.045Z,11.10
2022-11-04T00:54:07.750Z,11.10
2022-11-04T00:54:30.465Z,11.10
2022-11-04T00:54:53.071Z,11.10
2022-11-04T00:55:15.889Z,11.10
2022-11-04T00:55:40.050Z,11.10
2022-11-04T00:56:02.791Z,11.10
2022-11-04T00:56:25.500Z,11.10
2022-11-04T00:56:48.741Z,11.10
2022-11-04T00:57:11.416Z,11.10
2022-11-04T00:57:34.175Z,11.10
2022-11-04T00:57:57.798Z,11.10
2022-11-04T00:58:20.522Z,11.00
2022-11-04T00:58:47.450Z,11.10
2022-11-04T00:59:13.504Z,11.00
2022-11-04T00:59:37.352Z,11.10
2022-11-04T01:00:00.129Z,11.10
2022-11-04T01:00:23.871Z,11.10
2022-11-04T01:00:46.561Z,11.10
2022-11-04T01:01:09.761Z,11.10
2022-11-04T01:01:32.676Z,11.10
2022-11-04T01:01:56.132Z,11.10
2022-11-04T01:02:19.152Z,11.10
2022-11-04T01:02:41.963Z,11.10
2022-11-04T01:03:04.979Z,11.10
2022-11-04T01:03:27.888Z,11.10
2022-11-04T01:03:51.514Z,11.10
2022-11-04T01:04:14.529Z,11.10
2022-11-04T01:04:37.294Z,11.10
2022-11-04T01:05:00.034Z,11.10
2022-11-04T01:05:22.689Z,11.10
2022-11-04T01:05:45.361Z,11.10
2022-11-04T01:06:08.191Z,11.10
2022-11-04T01:06:30.910Z,11.00
2022-11-04T01:06:53.656Z,11.10
2022-11-04T01:07:16.326Z,11.00
2022-11-04T01:07:43.525Z,11.10
2022-11-04T01:08:06.556Z,11.10
2022-11-04T01:08:29.219Z,11.10
2022-11-04T01:08:55.996Z,11.10
2022-11-04T01:09:18.785Z,11.10
2022-11-04T01:09:41.751Z,11.10
2022-11-04T01:10:04.941Z,11.10
2022-11-04T01:10:27.661Z,11.10
2022-11-04T01:10:50.315Z,11.00
2022-11-04T01:11:13.020Z,11.10
2022-11-04T01:11:35.826Z,11.10
2022-11-04T01:11:58.499Z,11.10
2022-11-04T01:12:21.225Z,11.10
2022-11-04T01:12:43.953Z,11.10
2022-11-04T01:13:06.941Z,11.10
2022-11-04T01:13:30.114Z,11.10
2022-11-04T01:13:54.155Z,11.10
2022-11-04T01:14:16.945Z,11.10
2022-11-04T01:14:39.665Z,11.10
2022-11-04T01:15:02.412Z,11.10
2022-11-04T01:15:25.054Z,11.10
2022-11-04T01:15:48.311Z,11.10
2022-11-04T01:16:11.322Z,11.10
2022-11-04T01:16:34.253Z,11.10
2022-11-04T01:16:57.065Z,11.10
2022-11-04T01:17:19.756Z,11.10
2022-11-04T01:17:42.478Z,11.10
2022-11-04T01:18:06.209Z,11.10
2022-11-04T01:18:29.245Z,11.10
2022-11-04T01:18:52.067Z,11.10
2022-11-04T01:19:14.727Z,11.10
2022-11-04T01:19:37.538Z,11.10
2022-11-04T01:20:00.324Z,11.10
2022-11-04T01:20:23.005Z,11.10
2022-11-04T01:20:45.650Z,11.10
2022-11-04T01:21:08.956Z,11.10
2022-11-04T01:21:31.830Z,11.10
2022-11-04T01:21:54.506Z,11.10
2022-11-04T01:22:18.654Z,11.10
2022-11-04T01:22:41.315Z,11.10
2022-11-04T01:23:04.001Z,11.10
2022-11-04T01:23:26.630Z,11.10
2022-11-04T01:23:49.554Z,11.10
2022-11-04T01:24:12.315Z,11.20
2022-11-04T01:24:35.030Z,11.10
2022-11-04T01:24:57.820Z,11.10
2022-11-04T01:25:20.561Z,11.10
2022-11-04T01:25:43.254Z,11.10
2022-11-04T01:26:06.590Z,11.20
2022-11-04T01:26:31.125Z,11.10
2022-11-04T01:26:53.875Z,11.20
2022-11-04T01:27:16.585Z,11.10
2022-11-04T01:27:39.469Z,11.10
2022-11-04T01:28:02.240Z,11.10
2022-11-04T01:28:24.896Z,11.10
2022-11-04T01:28:47.591Z,11.10
2022-11-04T01:29:12.743Z,11.10
2022-11-04T01:29:35.515Z,11.10
2022-11-04T01:29:58.194Z,11.10
2022-11-04T01:30:21.046Z,11.20
2022-11-04T01:30:43.834Z,11.20
2022-11-04T01:31:07.377Z,11.10
2022-11-04T01:31:30.899Z,11.20
2022-11-04T01:31:53.786Z,11.20
2022-11-04T01:32:17.516Z,11.20
2022-11-04T01:32:40.236Z,11.20
2022-11-04T01:33:03.013Z,11.20
2022-11-04T01:33:25.698Z,11.20
2022-11-04T01:33:48.660Z,11.20
2022-11-04T01:34:11.376Z,11.20
2022-11-04T01:34:36.827Z,11.20
2022-11-04T01:35:02.063Z,11.20
2022-11-04T01:35:24.791Z,11.20
2022-11-04T01:35:47.611Z,11.20
2022-11-04T01:36:10.781Z,11.20
2022-11-04T01:36:33.717Z,11.30
2022-11-04T01:36:56.426Z,11.20
2022-11-04T01:37:19.125Z,11.20
2022-11-04T01:37:41.763Z,11.30
2022-11-04T01:38:04.471Z,11.30
2022-11-04T01:38:27.149Z,11.30
2022-11-04T01:38:51.929Z,11.30
2022-11-04T01:39:14.649Z,11.30
2022-11-04T01:39:37.391Z,11.30
2022-11-04T01:40:00.103Z,11.30
2022-11-04T01:40:22.875Z,11.30
2022-11-04T01:40:45.542Z,11.30
2022-11-04T01:41:09.835Z,11.30
2022-11-04T01:41:33.932Z,11.30
2022-11-04T01:41:59.133Z,11.30
2022-11-04T01:42:22.060Z,11.20
2022-11-04T01:42:44.735Z,11.30
2022-11-04T01:43:10.702Z,11.30
2022-11-04T01:43:43.875Z,11.30
2022-11-04T01:44:40.164Z,11.30
2022-11-04T01:45:09.255Z,11.30
2022-11-04T01:45:33.135Z,11.30
2022-11-04T01:45:56.842Z,11.20
2022-11-04T01:46:26.685Z,11.20
2022-11-04T01:46:50.910Z,11.20
2022-11-04T01:47:14.530Z,11.20
2022-11-04T01:47:40.027Z,11.20
2022-11-04T01:48:04.857Z,11.20
2022-11-04T01:48:29.177Z,11.20
2022-11-04T01:48:52.363Z,11.20
2022-11-04T01:49:24.546Z,11.20
2022-11-04T01:49:49.288Z,11.20
2022-11-04T01:50:13.857Z,11.20
2022-11-04T01:50:36.644Z,11.20
2022-11-04T01:50:59.423Z,11.20
2022-11-04T01:51:22.213Z,11.20
2022-11-04T01:51:45.058Z,11.30
2022-11-04T01:52:09.958Z,11.30
2022-11-04T01:52:35.883Z,11.30
2022-11-04T01:53:01.169Z,11.30
2022-11-04T01:53:25.543Z,11.30
2022-11-04T01:53:48.369Z,11.30
2022-11-04T01:54:11.138Z,11.30
2022-11-04T01:54:33.883Z,11.30
2022-11-04T01:54:58.258Z,11.30
2022-11-04T01:55:23.260Z,11.30
2022-11-04T01:55:47.873Z,11.30
2022-11-04T01:56:12.402Z,11.40
2022-11-04T01:56:35.130Z,11.40
2022-11-04T01:56:57.935Z,11.40
2022-11-04T01:57:26.479Z,11.40
2022-11-04T01:57:49.959Z,11.40
2022-11-04T01:58:16.051Z,11.40
2022-11-04T01:58:40.859Z,11.30
2022-11-04T01:59:05.775Z,11.40
2022-11-04T01:59:30.553Z,11.40
2022-11-04T01:59:53.428Z,11.40
2022-11-04T02:00:18.553Z,11.30
2022-11-04T02:00:41.509Z,11.40
2022-11-04T02:01:04.213Z,11.40
2022-11-04T02:01:27.121Z,11.30
2022-11-04T02:01:50.145Z,11.40
2022-11-04T02:02:13.107Z,11.40
2022-11-04T02:02:37.413Z,11.40
2022-11-04T02:03:00.969Z,11.40
2022-11-04T02:03:25.949Z,11.40
2022-11-04T02:03:51.097Z,11.50
2022-11-04T02:04:25.849Z,11.50
2022-11-04T02:04:48.638Z,11.50
2022-11-04T02:05:11.444Z,11.50
2022-11-04T02:05:34.218Z,11.40
2022-11-04T02:05:56.978Z,11.40
2022-11-04T02:06:20.328Z,11.40
2022-11-04T02:06:43.089Z,11.40
2022-11-04T02:07:07.370Z,11.40
2022-11-04T02:07:31.430Z,11.40
2022-11-04T02:07:55.675Z,11.40
2022-11-04T02:08:18.407Z,11.40
2022-11-04T02:08:41.203Z,11.40
2022-11-04T02:09:04.079Z,11.30
2022-11-04T02:09:28.309Z,11.40
2022-11-04T02:09:51.075Z,11.40
2022-11-04T02:10:13.744Z,11.40
2022-11-04T02:10:37.695Z,11.40
2022-11-04T02:11:01.859Z,11.40
2022-11-04T02:11:43.493Z,11.40
2022-11-04T02:12:25.049Z,11.40
2022-11-04T02:12:50.503Z,11.40
2022-11-04T02:13:13.303Z,11.40
2022-11-04T02:13:36.482Z,11.40
2022-11-04T02:13:59.429Z,11.40
2022-11-04T02:14:22.152Z,11.40
2022-11-04T02:14:44.939Z,11.40
2022-11-04T02:15:08.659Z,11.40
2022-11-04T02:15:37.650Z,11.40
2022-11-04T02:16:04.209Z,11.40
2022-11-04T02:16:36.568Z,11.40
2022-11-04T02:17:04.382Z,11.40
2022-11-04T02:18:04.043Z,11.40
2022-11-04T02:18:38.418Z,11.40
2022-11-04T02:19:04.978Z,11.40
2022-11-04T02:19:38.916Z,11.40
2022-11-04T02:20:44.487Z,11.40
2022-11-04T02:21:35.670Z,11.40
2022-11-04T02:22:14.746Z,11.40
2022-11-04T02:23:08.002Z,11.40
2022-11-04T02:23:45.638Z,11.40
2022-11-04T02:24:43.317Z,11.40
2022-11-04T02:25:19.089Z,11.40
2022-11-04T02:26:06.629Z,11.40
2022-11-04T02:26:54.823Z,11.40
2022-11-04T02:27:22.243Z,11.40
2022-11-04T02:27:54.200Z,11.40
2022-11-04T02:28:34.403Z,11.40
2022-11-04T02:29:14.913Z,11.40
2022-11-04T02:30:08.104Z,11.40
2022-11-04T02:30:32.183Z,11.50
2022-11-04T02:30:58.893Z,11.50
2022-11-04T02:31:24.199Z,11.50
2022-11-04T02:31:51.029Z,11.50
2022-11-04T02:32:18.118Z,11.50
2022-11-04T02:32:58.260Z,11.50
2022-11-04T02:33:22.365Z,11.50
2022-11-04T02:33:48.384Z,11.50
2022-11-04T02:34:12.528Z,11.50
2022-11-04T02:34:40.998Z,11.50
2022-11-04T02:35:05.775Z,11.50
2022-11-04T02:35:33.519Z,11.60
2022-11-04T02:36:00.377Z,11.60
2022-11-04T02:36:30.058Z,11.60
2022-11-04T02:36:56.655Z,11.50
2022-11-04T02:37:25.133Z,11.50
2022-11-04T02:37:51.377Z,11.50
2022-11-04T02:38:19.925Z,11.50
2022-11-04T02:38:47.502Z,11.50
2022-11-04T02:39:15.437Z,11.50
2022-11-04T02:39:41.775Z,11.50
2022-11-04T02:40:10.095Z,11.50
2022-11-04T02:40:38.468Z,11.50
2022-11-04T02:41:04.797Z,11.50
2022-11-04T02:41:31.129Z,11.50
2022-11-04T02:41:55.978Z,11.50
2022-11-04T02:42:23.449Z,11.50
2022-11-04T02:42:55.210Z,11.50
2022-11-04T02:43:22.898Z,11.50
2022-11-04T02:43:52.049Z,11.60
2022-11-04T02:44:18.624Z,11.60
2022-11-04T02:44:43.208Z,11.60
2022-11-04T02:45:14.713Z,11.60
2022-11-04T02:45:39.301Z,11.60
2022-11-04T02:46:03.522Z,11.60
2022-11-04T02:46:28.874Z,11.60
2022-11-04T02:46:53.538Z,11.60
2022-11-04T02:47:17.221Z,11.50
2022-11-04T02:47:42.100Z,11.50
2022-11-04T02:48:08.488Z,11.60
2022-11-04T02:48:35.669Z,11.60
2022-11-04T02:49:00.678Z,11.50
2022-11-04T02:49:26.159Z,11.60
2022-11-04T02:49:51.454Z,11.50
2022-11-04T02:50:17.358Z,11.60
2022-11-04T02:50:43.609Z,11.60
2022-11-04T02:51:09.133Z,11.60
2022-11-04T02:51:33.127Z,11.60
2022-11-04T02:51:58.404Z,11.60
2022-11-04T02:52:25.623Z,11.60
2022-11-04T02:52:52.357Z,11.60
2022-11-04T02:53:17.695Z,11.60
2022-11-04T02:53:43.818Z,11.60
2022-11-04T02:54:08.244Z,11.70
2022-11-04T02:54:36.317Z,11.60
2022-11-04T02:55:00.961Z,11.60
2022-11-04T02:55:25.753Z,11.60
2022-11-04T02:55:49.786Z,11.60
2022-11-04T02:56:12.462Z,11.70
2022-11-04T02:56:36.649Z,11.70
2022-11-04T02:56:59.534Z,11.70
2022-11-04T02:57:23.176Z,11.60
2022-11-04T02:57:46.969Z,11.70
2022-11-04T02:58:11.559Z,11.70
2022-11-04T02:58:39.162Z,11.70
2022-11-04T02:59:03.748Z,11.60
2022-11-04T02:59:31.573Z,11.60
2022-11-04T02:59:56.489Z,11.60
2022-11-04T03:00:23.347Z,11.60
2022-11-04T03:00:46.077Z,11.60
2022-11-04T03:01:09.522Z,11.60
2022-11-04T03:01:34.753Z,11.60
2022-11-04T03:01:57.750Z,11.60
2022-11-04T03:02:24.058Z,11.60
2022-11-04T03:02:49.122Z,11.60
2022-11-04T03:03:12.794Z,11.60
2022-11-04T03:03:37.911Z,11.60
2022-11-04T03:04:02.011Z,11.60
2022-11-04T03:04:26.630Z,11.60
2022-11-04T03:04:50.886Z,11.60
2022-11-04T03:05:14.891Z,11.50
2022-11-04T03:05:38.565Z,11.50
2022-11-04T03:06:01.392Z,11.50
2022-11-04T03:06:24.492Z,11.50
2022-11-04T03:06:48.976Z,11.50
2022-11-04T03:07:12.946Z,11.50
2022-11-04T03:07:37.754Z,11.50
2022-11-04T03:08:02.260Z,11.50
2022-11-04T03:08:27.548Z,11.50
2022-11-04T03:08:51.891Z,11.50
2022-11-04T03:09:14.726Z,11.50
2022-11-04T03:09:37.456Z,11.50
2022-11-04T03:10:01.990Z,11.50
2022-11-04T03:10:26.316Z,11.50
2022-11-04T03:10:51.198Z,11.50
2022-11-04T03:11:15.532Z,11.50
2022-11-04T03:11:38.425Z,11.50
2022-11-04T03:12:02.656Z,11.50
2022-11-04T03:12:28.240Z,11.50
2022-11-04T03:12:53.755Z,11.50
2022-11-04T03:13:17.480Z,11.50
2022-11-04T03:13:42.101Z,11.50
2022-11-04T03:14:06.417Z,11.50
2022-11-04T03:14:32.806Z,11.50
2022-11-04T03:14:56.371Z,11.50
2022-11-04T03:15:21.704Z,11.50
2022-11-04T03:15:48.475Z,11.50
2022-11-04T03:16:13.426Z,11.50
2022-11-04T03:16:38.290Z,11.50
2022-11-04T03:17:04.236Z,11.50
2022-11-04T03:17:29.972Z,11.50
2022-11-04T03:17:56.139Z,11.50
2022-11-04T03:18:22.847Z,11.50
2022-11-04T03:18:50.672Z,11.60
2022-11-04T03:19:15.050Z,11.60
2022-11-04T03:19:40.945Z,11.50
2022-11-04T03:20:06.306Z,11.50
2022-11-04T03:20:29.009Z,11.60
2022-11-04T03:20:51.921Z,11.50
2022-11-04T03:21:14.739Z,11.50
2022-11-04T03:21:39.591Z,11.50
2022-11-04T03:22:04.325Z,11.50
2022-11-04T03:22:28.160Z,11.50
2022-11-04T03:22:51.003Z,11.60
2022-11-04T03:23:13.776Z,11.60
2022-11-04T03:23:37.506Z,11.50
2022-11-04T03:24:00.341Z,11.50
2022-11-04T03:24:23.006Z,11.60
2022-11-04T03:24:46.241Z,11.50
2022-11-04T03:25:09.686Z,11.50
2022-11-04T03:25:34.712Z,11.60
2022-11-04T03:26:02.136Z,11.50
2022-11-04T03:26:28.781Z,11.50
2022-11-04T03:26:55.101Z,11.50
2022-11-04T03:27:21.995Z,11.50
2022-11-04T03:27:47.729Z,11.50
2022-11-04T03:28:18.236Z,11.50
2022-11-04T03:28:44.825Z,11.50
2022-11-04T03:29:17.096Z,11.40
2022-11-04T03:29:45.599Z,11.50
2022-11-04T03:30:10.153Z,11.50
2022-11-04T03:30:37.807Z,11.50
2022-11-04T03:31:02.415Z,11.50
2022-11-04T03:31:27.686Z,11.50
2022-11-04T03:31:53.972Z,11.40
2022-11-04T03:32:21.101Z,11.40
2022-11-04T03:32:45.735Z,11.40
2022-11-04T03:33:12.354Z,11.40
2022-11-04T03:33:39.378Z,11.40
2022-11-04T03:34:02.102Z,11.40
2022-11-04T03:34:24.834Z,11.40
2022-11-04T03:34:47.520Z,11.50
2022-11-04T03:35:10.265Z,11.40
2022-11-04T03:35:32.987Z,11.50
2022-11-04T03:35:55.701Z,11.40
2022-11-04T03:36:18.547Z,11.40
2022-11-04T03:36:41.379Z,11.40
2022-11-04T03:37:04.156Z,11.40
2022-11-04T03:37:26.923Z,11.40
2022-11-04T03:37:50.240Z,11.40
2022-11-04T03:38:12.996Z,11.40
2022-11-04T03:38:35.782Z,11.40
2022-11-04T03:38:58.500Z,11.40
2022-11-04T03:39:21.248Z,11.40
2022-11-04T03:39:44.507Z,11.40
2022-11-04T03:40:09.361Z,11.40
2022-11-04T03:40:32.161Z,11.40
2022-11-04T03:40:54.901Z,11.40
2022-11-04T03:41:20.106Z,11.40
2022-11-04T03:41:44.328Z,11.40
2022-11-04T03:42:20.857Z,11.40
2022-11-04T03:42:46.468Z,11.40
2022-11-04T03:43:11.443Z,11.40
2022-11-04T03:43:34.606Z,11.40
2022-11-04T03:43:57.311Z,11.40
2022-11-04T03:44:20.610Z,11.40
2022-11-04T03:44:44.808Z,11.40
2022-11-04T03:45:09.137Z,11.40
2022-11-04T03:45:31.866Z,11.40
2022-11-04T03:45:54.723Z,11.40
2022-11-04T03:46:17.508Z,11.40
2022-11-04T03:46:40.730Z,11.40
2022-11-04T03:47:03.527Z,11.40
2022-11-04T03:47:28.197Z,11.40
2022-11-04T03:47:51.031Z,11.40
2022-11-04T03:48:13.842Z,11.40
2022-11-04T03:48:36.652Z,11.40
2022-11-04T03:49:00.658Z,11.50
2022-11-04T03:49:23.397Z,11.40
2022-11-04T03:49:46.638Z,11.40
2022-11-04T03:50:11.577Z,11.40
2022-11-04T03:50:39.693Z,11.40
2022-11-04T03:51:02.601Z,11.40
2022-11-04T03:51:25.406Z,11.40
2022-11-04T03:51:48.189Z,11.50
2022-11-04T03:52:10.922Z,11.40
2022-11-04T03:52:33.901Z,11.40
2022-11-04T03:52:56.969Z,11.50
2022-11-04T03:53:22.196Z,11.40
2022-11-04T03:53:45.046Z,11.40
2022-11-04T03:54:08.191Z,11.40
2022-11-04T03:54:35.707Z,11.40
2022-11-04T03:54:58.552Z,11.40
2022-11-04T03:55:22.097Z,11.40
2022-11-04T03:55:49.408Z,11.40
2022-11-04T03:56:25.477Z,11.50
2022-11-04T03:57:06.998Z,11.50
2022-11-04T03:57:36.067Z,11.40
2022-11-04T03:58:00.958Z,11.40
2022-11-04T03:58:28.322Z,11.50
2022-11-04T03:58:59.397Z,11.50
2022-11-04T03:59:44.486Z,11.50
2022-11-04T04:00:11.056Z,11.50
2022-11-04T04:00:37.949Z,11.50
2022-11-04T04:01:03.846Z,11.50
2022-11-04T04:01:29.084Z,11.50
2022-11-04T04:01:54.406Z,11.50
2022-11-04T04:02:19.292Z,11.50
2022-11-04T04:02:47.889Z,11.50
2022-11-04T04:03:12.776Z,11.50
2022-11-04T04:03:38.317Z,11.60
2022-11-04T04:04:03.910Z,11.60
2022-11-04T04:04:28.802Z,11.60
2022-11-04T04:04:55.042Z,11.60
2022-11-04T04:05:20.503Z,11.60
2022-11-04T04:05:45.717Z,11.60
2022-11-04T04:06:09.732Z,11.60
2022-11-04T04:06:34.847Z,11.60
2022-11-04T04:07:00.837Z,11.60
2022-11-04T04:07:30.008Z,11.60
2022-11-04T04:07:56.810Z,11.60
2022-11-04T04:08:23.011Z,11.60
2022-11-04T04:08:47.340Z,11.60
2022-11-04T04:09:12.770Z,11.60
2022-11-04T04:09:39.073Z,11.60
2022-11-04T04:10:24.724Z,11.60
2022-11-04T04:10:52.843Z,11.60
2022-11-04T04:11:17.958Z,11.60
2022-11-04T04:11:43.204Z,11.50
2022-11-04T04:12:10.218Z,11.50
2022-11-04T04:12:35.556Z,11.60
2022-11-04T04:12:59.629Z,11.50
2022-11-04T04:13:28.209Z,11.50
2022-11-04T04:13:53.933Z,11.50
2022-11-04T04:14:38.843Z,11.50
2022-11-04T04:15:05.922Z,11.50
2022-11-04T04:15:31.271Z,11.50
2022-11-04T04:15:56.589Z,11.50
2022-11-04T04:16:23.381Z,11.50
2022-11-04T04:16:49.762Z,11.50
2022-11-04T04:17:17.131Z,11.50
2022-11-04T04:17:41.829Z,11.50
2022-11-04T04:18:06.347Z,11.50
2022-11-04T04:18:32.332Z,11.50
2022-11-04T04:18:58.583Z,11.50
2022-11-04T04:19:24.100Z,11.50
2022-11-04T04:19:49.453Z,11.50
2022-11-04T04:20:13.758Z,11.50
2022-11-04T04:20:36.534Z,11.50
2022-11-04T04:21:00.136Z,11.50
2022-11-04T04:21:24.814Z,11.50
2022-11-04T04:21:51.776Z,11.50
2022-11-04T04:22:16.004Z,11.50
2022-11-04T04:22:41.929Z,11.50
2022-11-04T04:23:26.177Z,11.50
2022-11-04T04:24:07.538Z,11.50
2022-11-04T04:24:53.200Z,11.50
2022-11-04T04:25:35.025Z,11.50
2022-11-04T04:26:18.459Z,11.50
2022-11-04T04:26:59.874Z,11.50
2022-11-04T04:27:32.161Z,11.60
2022-11-04T04:27:55.016Z,11.60
2022-11-04T04:28:18.081Z,11.60
2022-11-04T04:28:40.844Z,11.60
2022-11-04T04:29:03.768Z,11.60
2022-11-04T04:29:26.884Z,11.60
2022-11-04T04:29:50.929Z,11.60
2022-11-04T04:30:15.119Z,11.60
2022-11-04T04:30:39.816Z,11.60
2022-11-04T04:31:03.734Z,11.50
2022-11-04T04:31:44.959Z,11.50
2022-11-04T04:32:07.719Z,11.50
2022-11-04T04:32:33.454Z,11.50
2022-11-04T04:32:58.277Z,11.50
2022-11-04T04:33:20.969Z,11.50
2022-11-04T04:33:43.919Z,11.50
2022-11-04T04:34:06.639Z,11.50
2022-11-04T04:34:30.864Z,11.50
2022-11-04T04:35:16.320Z,11.50
2022-11-04T04:35:44.139Z,11.50
2022-11-04T04:36:07.422Z,11.50
2022-11-04T04:36:30.885Z,11.50
2022-11-04T04:36:57.688Z,11.50
2022-11-04T04:37:21.293Z,11.50
2022-11-04T04:37:44.424Z,11.50
2022-11-04T04:38:27.009Z,11.60
2022-11-04T04:39:08.110Z,11.60
2022-11-04T04:39:59.384Z,11.60
2022-11-04T04:40:43.044Z,11.60
2022-11-04T04:41:27.860Z,11.60
2022-11-04T04:42:09.473Z,11.60
2022-11-04T04:42:51.429Z,11.60
2022-11-04T04:43:34.173Z,11.60
2022-11-04T04:44:16.726Z,11.60
2022-11-04T04:44:58.505Z,11.60
2022-11-04T04:45:22.618Z,11.60
2022-11-04T04:45:50.084Z,11.60
2022-11-04T04:46:12.919Z,11.60
2022-11-04T04:46:35.660Z,11.60
2022-11-04T04:46:58.399Z,11.60
2022-11-04T04:47:22.589Z,11.60
2022-11-04T04:47:45.993Z,11.60
2022-11-04T04:48:09.669Z,11.60
2022-11-04T04:48:32.435Z,11.60
2022-11-04T04:48:55.160Z,11.60
2022-11-04T04:49:17.863Z,11.60
2022-11-04T04:49:50.253Z,11.60
2022-11-04T04:50:14.535Z,11.70
2022-11-04T04:50:39.788Z,11.70
2022-11-04T04:51:02.559Z,11.70
2022-11-04T04:51:25.301Z,11.70
2022-11-04T04:51:48.365Z,11.60
2022-11-04T04:52:11.054Z,11.60
2022-11-04T04:52:34.978Z,11.70
2022-11-04T04:52:58.254Z,11.70
2022-11-04T04:53:21.082Z,11.70
2022-11-04T04:53:43.774Z,11.70
2022-11-04T04:54:06.585Z,11.70
2022-11-04T04:54:29.319Z,11.70
2022-11-04T04:54:52.246Z,11.70
2022-11-04T04:55:15.359Z,11.70
2022-11-04T04:55:40.781Z,11.70
2022-11-04T04:56:05.115Z,11.70
2022-11-04T04:56:27.854Z,11.70
2022-11-04T04:56:50.565Z,11.80
2022-11-04T04:57:13.289Z,11.80
2022-11-04T04:57:36.146Z,11.80
2022-11-04T04:57:58.879Z,11.80
2022-11-04T04:58:21.592Z,11.70
2022-11-04T04:58:44.464Z,11.80
2022-11-04T04:59:07.203Z,11.70
2022-11-04T04:59:30.404Z,11.80
2022-11-04T04:59:53.194Z,11.80
2022-11-04T05:00:17.638Z,11.80
2022-11-04T05:00:40.378Z,11.80
2022-11-04T05:01:05.468Z,11.80
2022-11-04T05:01:29.564Z,11.80
2022-11-04T05:01:52.848Z,11.80
2022-11-04T05:02:16.122Z,11.80
2022-11-04T05:02:39.107Z,11.80
2022-11-04T05:03:02.399Z,11.80
2022-11-04T05:03:25.274Z,11.70
2022-11-04T05:03:48.004Z,11.80
2022-11-04T05:04:10.719Z,11.80
2022-11-04T05:04:33.513Z,11.80
2022-11-04T05:04:56.513Z,11.80
2022-11-04T05:05:19.520Z,11.80
2022-11-04T05:05:42.239Z,11.80
2022-11-04T05:06:05.249Z,11.80
2022-11-04T05:06:28.015Z,11.80
2022-11-04T05:06:51.019Z,11.80
2022-11-04T05:07:13.827Z,11.80
2022-11-04T05:07:36.540Z,11.80
2022-11-04T05:08:05.904Z,11.80
2022-11-04T05:08:29.038Z,11.80
2022-11-04T05:08:51.889Z,11.80
2022-11-04T05:09:14.722Z,11.80
2022-11-04T05:09:37.441Z,11.80
2022-11-04T05:10:00.108Z,11.80
2022-11-04T05:10:22.877Z,11.80
2022-11-04T05:10:45.604Z,11.80
2022-11-04T05:11:08.382Z,11.80
2022-11-04T05:11:31.309Z,11.80
2022-11-04T05:11:54.253Z,11.70
2022-11-04T05:12:17.065Z,11.80
2022-11-04T05:12:59.009Z,11.70
2022-11-04T05:13:28.503Z,11.80
2022-11-04T05:13:51.374Z,11.80
2022-11-04T05:14:14.845Z,11.80
2022-11-04T05:14:37.856Z,11.80
2022-11-04T05:15:00.769Z,11.80
2022-11-04T05:15:23.529Z,11.80
2022-11-04T05:15:46.309Z,11.80
2022-11-04T05:16:11.174Z,11.80
2022-11-04T05:16:39.477Z,11.90
2022-11-04T05:17:03.819Z,11.90
2022-11-04T05:17:26.575Z,11.90
2022-11-04T05:17:53.534Z,11.90
2022-11-04T05:18:16.289Z,11.80
2022-11-04T05:18:39.552Z,11.90
2022-11-04T05:19:02.249Z,11.80
2022-11-04T05:19:24.962Z,11.80
2022-11-04T05:19:47.855Z,11.80
2022-11-04T05:20:11.529Z,11.80
2022-11-04T05:20:34.543Z,11.80
2022-11-04T05:20:57.453Z,11.80
2022-11-04T05:21:20.168Z,11.80
2022-11-04T05:21:42.936Z,11.80
2022-11-04T05:22:05.768Z,11.80
2022-11-04T05:22:28.894Z,11.80
2022-11-04T05:22:51.755Z,11.80
2022-11-04T05:23:15.053Z,11.70
2022-11-04T05:23:40.650Z,11.70
2022-11-04T05:24:03.387Z,11.60
2022-11-04T05:24:26.202Z,11.60
2022-11-04T05:24:48.877Z,11.60
2022-11-04T05:25:14.089Z,11.60
2022-11-04T05:25:36.794Z,11.50
2022-11-04T05:26:00.391Z,11.50
2022-11-04T05:26:23.238Z,11.50
2022-11-04T05:26:46.000Z,11.50
2022-11-04T05:27:08.718Z,11.50
2022-11-04T05:27:31.423Z,11.50
2022-11-04T05:27:54.094Z,11.50
2022-11-04T05:28:16.872Z,11.60
2022-11-04T05:28:39.860Z,11.60
2022-11-04T05:29:02.660Z,11.50
2022-11-04T05:29:25.608Z,11.50
2022-11-04T05:29:48.277Z,11.60
2022-11-04T05:30:11.834Z,11.60
2022-11-04T05:30:34.818Z,11.60
2022-11-04T05:30:57.450Z,11.60
2022-11-04T05:31:21.539Z,11.50
2022-11-04T05:31:44.200Z,11.60
2022-11-04T05:32:07.098Z,11.60
2022-11-04T05:32:30.920Z,11.60
2022-11-04T05:32:53.604Z,11.60